createdAt,value
2023-03-24T00:01:18.199Z,100.00
2023-03-24T00:03:45.916Z,100.00
2023-03-24T00:06:13.924Z,100.00
2023-03-24T00:08:43.876Z,100.00
2023-03-24T00:11:12.272Z,100.00
2023-03-24T00:13:40.697Z,100.00
2023-03-24T00:16:10.692Z,100.00
2023-03-24T00:18:39.720Z,100.00
2023-03-24T00:21:08.942Z,100.00
2023-03-24T00:23:36.563Z,100.00
2023-03-24T00:26:08.898Z,100.00
2023-03-24T00:28:37.310Z,100.00
2023-03-24T00:31:06.614Z,100.00
2023-03-24T00:33:35.633Z,100.00
2023-03-24T00:36:06.192Z,100.00
2023-03-24T00:38:34.938Z,100.00
2023-03-24T00:41:02.586Z,100.00
2023-03-24T00:43:29.995Z,100.00
2023-03-24T00:46:11.048Z,100.00
2023-03-24T00:48:42.006Z,100.00
2023-03-24T00:51:11.051Z,100.00
2023-03-24T00:53:43.980Z,100.00
2023-03-24T00:56:11.766Z,100.00
2023-03-24T00:58:39.663Z,100.00
2023-03-24T01:01:07.781Z,100.00
2023-03-24T01:03:43.181Z,100.00
2023-03-24T01:06:11.576Z,100.00
2023-03-24T01:08:39.603Z,100.00
2023-03-24T01:11:07.070Z,100.00
2023-03-24T01:13:34.729Z,100.00
2023-03-24T01:16:03.240Z,100.00
2023-03-24T01:18:30.672Z,100.00
2023-03-24T01:20:58.517Z,100.00
2023-03-24T01:23:26.310Z,100.00
2023-03-24T01:25:55.201Z,100.00
2023-03-24T01:28:25.268Z,100.00
2023-03-24T01:30:54.653Z,100.00
2023-03-24T01:33:22.587Z,100.00
2023-03-24T01:35:51.165Z,100.00
2023-03-24T01:38:18.723Z,100.00
2023-03-24T01:40:47.602Z,100.00
2023-03-24T01:43:23.624Z,100.00
2023-03-24T01:45:51.147Z,100.00
2023-03-24T01:48:50.374Z,100.00
2023-03-24T01:51:38.791Z,100.00
2023-03-24T01:54:16.793Z,100.00
2023-03-24T01:56:50.696Z,100.00
2023-03-24T01:59:24.652Z,100.00
2023-03-24T02:02:06.687Z,100.00
2023-03-24T02:04:45.914Z,100.00
2023-03-24T02:07:20.196Z,100.00
2023-03-24T02:09:48.661Z,100.00
2023-03-24T02:12:16.478Z,100.00
2023-03-24T02:14:44.552Z,100.00
2023-03-24T02:17:34.396Z,100.00
2023-03-24T02:20:02.545Z,100.00
2023-03-24T02:22:42.336Z,100.00
2023-03-24T02:25:41.626Z,100.00
2023-03-24T02:28:15.570Z,100.00
2023-03-24T02:31:13.008Z,100.00
2023-03-24T02:34:10.172Z,100.00
2023-03-24T02:36:59.605Z,100.00
2023-03-24T02:39:34.467Z,100.00
2023-03-24T02:42:31.281Z,100.00
2023-03-24T02:45:17.126Z,100.00
2023-03-24T02:48:14.025Z,100.00
2023-03-24T02:50:51.500Z,100.00
2023-03-24T02:53:37.958Z,100.00
2023-03-24T02:56:47.048Z,100.00
2023-03-24T02:59:42.387Z,100.00
2023-03-24T03:02:37.062Z,100.00
2023-03-24T03:05:21.697Z,100.00
2023-03-24T03:07:52.187Z,100.00
2023-03-24T03:10:25.380Z,100.00
2023-03-24T03:12:57.641Z,100.00
2023-03-24T03:15:32.560Z,100.00
2023-03-24T03:18:17.844Z,100.00
2023-03-24T03:20:51.077Z,100.00
2023-03-24T03:23:34.590Z,100.00
2023-03-24T03:26:04.911Z,100.00
2023-03-24T03:28:36.693Z,100.00
2023-03-24T03:31:08.993Z,100.00
2023-03-24T03:33:43.830Z,100.00
2023-03-24T03:36:26.548Z,100.00
2023-03-24T03:39:09.584Z,100.00
2023-03-24T03:41:39.232Z,100.00
2023-03-24T03:44:07.267Z,100.00
2023-03-24T03:46:36.527Z,100.00
2023-03-24T03:49:08.047Z,100.00
2023-03-24T03:51:36.064Z,100.00
2023-03-24T03:54:08.848Z,100.00
2023-03-24T03:56:37.925Z,100.00
2023-03-24T03:59:36.225Z,100.00
2023-03-24T04:02:32.385Z,100.00
2023-03-24T04:05:15.645Z,100.00
2023-03-24T04:08:12.688Z,100.00
2023-03-24T04:10:57.866Z,100.00
2023-03-24T04:13:35.284Z,100.00
2023-03-24T04:16:46.713Z,100.00
2023-03-24T04:19:38.773Z,100.00
2023-03-24T04:22:25.116Z,100.00
2023-03-24T04:25:27.102Z,100.00
2023-03-24T04:27:57.072Z,100.00
2023-03-24T04:30:48.665Z,100.00
2023-03-24T04:33:45.549Z,100.00
2023-03-24T04:36:22.425Z,100.00
2023-03-24T04:39:28.078Z,100.00
2023-03-24T04:42:01.784Z,100.00
2023-03-24T04:44:33.167Z,100.00
2023-03-24T04:47:23.038Z,100.00
2023-03-24T04:50:58.917Z,100.00
2023-03-24T04:53:29.240Z,100.00
2023-03-24T04:56:39.079Z,100.00
2023-03-24T04:59:12.932Z,100.00
2023-03-24T05:01:41.196Z,100.00
2023-03-24T05:04:31.664Z,100.00
2023-03-24T05:07:06.568Z,100.00
2023-03-24T05:09:34.648Z,100.00
2023-03-24T05:12:03.355Z,100.00
2023-03-24T05:14:39.589Z,100.00
2023-03-24T05:17:08.018Z,100.00
2023-03-24T05:19:36.467Z,100.00
2023-03-24T05:22:04.245Z,100.00
2023-03-24T05:24:34.791Z,100.00
2023-03-24T05:27:02.343Z,100.00
2023-03-24T05:29:30.701Z,100.00
2023-03-24T05:32:00.237Z,100.00
2023-03-24T05:34:27.713Z,100.00
2023-03-24T05:37:13.680Z,100.00
2023-03-24T05:39:41.115Z,100.00
2023-03-24T05:42:18.069Z,100.00
2023-03-24T05:44:45.839Z,100.00
2023-03-24T05:47:22.545Z,100.00
2023-03-24T05:49:51.888Z,100.00
2023-03-24T05:52:20.780Z,100.00
2023-03-24T05:54:52.447Z,100.00
2023-03-24T05:57:23.821Z,100.00
2023-03-24T06:00:17.956Z,100.00
2023-03-24T06:03:01.348Z,100.00
2023-03-24T06:05:42.805Z,100.00
2023-03-24T06:08:11.628Z,100.00
2023-03-24T06:10:40.709Z,100.00
2023-03-24T06:13:09.398Z,100.00
2023-03-24T06:15:42.942Z,100.00
2023-03-24T06:18:28.281Z,100.00
2023-03-24T06:20:57.694Z,100.00
2023-03-24T06:23:30.572Z,100.00
2023-03-24T06:26:09.417Z,100.00
2023-03-24T06:28:39.770Z,100.00
2023-03-24T06:31:20.500Z,100.00
2023-03-24T06:33:54.084Z,100.00
2023-03-24T06:36:23.586Z,100.00
2023-03-24T06:38:51.283Z,100.00
2023-03-24T06:41:21.208Z,100.00
2023-03-24T06:43:53.018Z,100.00
2023-03-24T06:46:21.110Z,100.00
2023-03-24T06:48:49.737Z,100.00
2023-03-24T06:51:17.954Z,100.00
2023-03-24T06:53:46.878Z,100.00
2023-03-24T06:56:17.607Z,100.00
2023-03-24T06:58:50.353Z,100.00
2023-03-24T07:01:27.065Z,100.00
2023-03-24T07:03:57.920Z,100.00
2023-03-24T07:06:25.448Z,100.00
2023-03-24T07:08:57.196Z,100.00
2023-03-24T07:11:27.529Z,100.00
2023-03-24T07:13:59.094Z,100.00
2023-03-24T07:16:28.914Z,100.00
2023-03-24T07:19:04.061Z,100.00
2023-03-24T07:21:35.923Z,100.00
2023-03-24T07:24:03.629Z,100.00
2023-03-24T07:26:38.354Z,100.00
2023-03-24T07:29:13.508Z,100.00
2023-03-24T07:32:08.083Z,100.00
2023-03-24T07:34:39.507Z,100.00
2023-03-24T07:37:07.057Z,100.00
2023-03-24T07:39:34.957Z,100.00
2023-03-24T07:42:02.528Z,100.00
2023-03-24T07:45:01.987Z,100.00
2023-03-24T07:47:29.674Z,100.00
2023-03-24T07:49:57.681Z,100.00
2023-03-24T07:52:25.489Z,100.00
2023-03-24T07:54:55.861Z,100.00
2023-03-24T07:57:48.431Z,100.00
2023-03-24T08:00:20.357Z,100.00
2023-03-24T08:03:09.558Z,100.00
2023-03-24T08:05:48.811Z,100.00
2023-03-24T08:08:22.103Z,100.00
2023-03-24T08:10:51.027Z,100.00
2023-03-24T08:13:19.329Z,100.00
2023-03-24T08:15:46.927Z,100.00
2023-03-24T08:18:14.844Z,100.00
2023-03-24T08:20:42.427Z,100.00
2023-03-24T08:23:09.993Z,100.00
2023-03-24T08:25:38.659Z,100.00
2023-03-24T08:28:06.686Z,100.00
2023-03-24T08:30:34.528Z,100.00
2023-03-24T08:33:02.639Z,100.00
2023-03-24T08:35:34.573Z,100.00
2023-03-24T08:38:06.169Z,100.00
2023-03-24T08:40:35.828Z,100.00
2023-03-24T08:43:08.565Z,100.00
2023-03-24T08:45:36.587Z,100.00
2023-03-24T08:48:07.491Z,100.00
2023-03-24T08:50:38.863Z,100.00
2023-03-24T08:53:07.356Z,100.00
2023-03-24T08:55:37.318Z,100.00
2023-03-24T08:58:04.736Z,100.00
2023-03-24T09:00:32.219Z,100.00
2023-03-24T09:03:01.236Z,100.00
2023-03-24T09:05:43.558Z,100.00
2023-03-24T09:08:19.039Z,100.00
2023-03-24T09:10:49.712Z,100.00
2023-03-24T09:13:19.585Z,100.00
2023-03-24T09:15:54.079Z,100.00
2023-03-24T09:18:22.094Z,100.00
2023-03-24T09:20:51.123Z,100.00
2023-03-24T09:23:19.737Z,100.00
2023-03-24T09:25:52.567Z,100.00
2023-03-24T09:28:21.155Z,100.00
2023-03-24T09:30:48.801Z,100.00
2023-03-24T09:33:17.247Z,100.00
2023-03-24T09:35:44.916Z,100.00
2023-03-24T09:38:13.376Z,100.00
2023-03-24T09:40:43.682Z,100.00
2023-03-24T09:43:37.567Z,100.00
2023-03-24T09:46:11.225Z,100.00
2023-03-24T09:48:45.983Z,100.00
2023-03-24T09:51:26.163Z,100.00
2023-03-24T09:54:00.906Z,100.00
2023-03-24T09:56:32.074Z,100.00
2023-03-24T09:59:04.916Z,100.00
2023-03-24T10:01:36.476Z,100.00
2023-03-24T10:04:07.601Z,100.00
2023-03-24T10:06:44.778Z,100.00
2023-03-24T10:09:33.887Z,100.00
2023-03-24T10:12:31.320Z,100.00
2023-03-24T10:15:09.486Z,100.00
2023-03-24T10:17:56.656Z,100.00
2023-03-24T10:20:33.274Z,100.00
2023-03-24T10:23:38.424Z,100.00
2023-03-24T10:26:25.276Z,100.00
2023-03-24T10:29:06.103Z,100.00
2023-03-24T10:31:36.588Z,100.00
2023-03-24T10:34:05.017Z,100.00
2023-03-24T10:36:33.552Z,100.00
2023-03-24T10:39:09.591Z,100.00
2023-03-24T10:41:46.280Z,100.00
2023-03-24T10:44:14.725Z,100.00
2023-03-24T10:46:50.109Z,100.00
2023-03-24T10:49:20.870Z,100.00
2023-03-24T10:52:02.246Z,100.00
2023-03-24T10:54:32.003Z,100.00
2023-03-24T10:57:00.565Z,100.00
2023-03-24T10:59:49.454Z,100.00
2023-03-24T11:02:24.770Z,100.00
2023-03-24T11:04:58.478Z,100.00
2023-03-24T11:07:42.094Z,100.00
2023-03-24T11:10:10.021Z,100.00
2023-03-24T11:12:40.989Z,100.00
2023-03-24T11:15:23.339Z,100.00
2023-03-24T11:18:06.593Z,100.00
2023-03-24T11:20:41.193Z,100.00
2023-03-24T11:23:25.505Z,100.00
2023-03-24T11:26:41.292Z,100.00
2023-03-24T11:29:19.592Z,100.00
2023-03-24T11:31:56.496Z,100.00
2023-03-24T11:34:34.572Z,100.00
2023-03-24T11:37:04.496Z,100.00
2023-03-24T11:39:34.127Z,100.00
2023-03-24T11:42:10.430Z,100.00
2023-03-24T11:44:38.370Z,100.00
2023-03-24T11:47:12.451Z,100.00
2023-03-24T11:49:55.917Z,100.00
2023-03-24T11:52:38.684Z,100.00
2023-03-24T11:55:37.742Z,100.00
2023-03-24T11:58:50.067Z,100.00
2023-03-24T12:01:20.929Z,100.00
2023-03-24T12:04:03.944Z,100.00
2023-03-24T12:06:46.864Z,100.00
2023-03-24T12:09:42.427Z,100.00
2023-03-24T12:12:45.741Z,100.00
2023-03-24T12:15:26.692Z,100.00
2023-03-24T12:18:05.985Z,100.00
2023-03-24T12:20:57.376Z,100.00
2023-03-24T12:23:28.366Z,100.00
2023-03-24T12:26:14.631Z,100.00
2023-03-24T12:29:06.560Z,100.00
2023-03-24T12:31:44.374Z,98.42
2023-03-24T12:34:30.739Z,93.30
2023-03-24T12:37:11.209Z,90.38
2023-03-24T12:40:06.725Z,96.93
2023-03-24T12:42:44.734Z,95.40
2023-03-24T12:45:32.629Z,100.00
2023-03-24T12:48:22.254Z,95.09
2023-03-24T12:51:04.706Z,95.95
2023-03-24T12:53:44.784Z,94.62
2023-03-24T12:56:35.765Z,90.08
2023-03-24T12:59:11.713Z,92.82
2023-03-24T13:01:44.752Z,93.60
2023-03-24T13:04:37.926Z,92.28
2023-03-24T13:07:11.583Z,91.38
2023-03-24T13:09:55.773Z,91.71
2023-03-24T13:12:32.994Z,84.92
2023-03-24T13:15:04.709Z,85.11
2023-03-24T13:18:09.680Z,86.69
2023-03-24T13:21:11.791Z,84.53
2023-03-24T13:24:03.986Z,81.31
2023-03-24T13:26:56.656Z,78.88
2023-03-24T13:29:48.503Z,77.59
2023-03-24T13:32:23.788Z,75.88
2023-03-24T13:35:01.277Z,74.01
2023-03-24T13:37:37.997Z,72.11
2023-03-24T13:40:11.826Z,70.96
2023-03-24T13:42:59.837Z,68.76
2023-03-24T13:45:39.822Z,72.05
2023-03-24T13:48:09.975Z,67.99
2023-03-24T13:50:47.390Z,68.51
2023-03-24T13:53:16.090Z,66.29
2023-03-24T13:55:51.796Z,66.41
2023-03-24T13:58:22.952Z,65.98
2023-03-24T14:01:09.409Z,66.57
2023-03-24T14:03:44.567Z,66.84
2023-03-24T14:06:17.704Z,65.78
2023-03-24T14:08:48.232Z,65.49
2023-03-24T14:11:57.445Z,63.69
2023-03-24T14:14:29.360Z,53.71
2023-03-24T14:17:06.206Z,46.83
2023-03-24T14:19:45.491Z,42.58
2023-03-24T14:22:41.314Z,38.15
2023-03-24T14:25:15.304Z,37.81
2023-03-24T14:27:51.375Z,35.95
2023-03-24T14:30:56.852Z,34.31
2023-03-24T14:33:27.126Z,36.44
2023-03-24T14:36:06.623Z,34.60
2023-03-24T14:38:37.787Z,33.63
2023-03-24T14:41:15.078Z,34.15
2023-03-24T14:43:43.276Z,33.58
2023-03-24T14:46:42.034Z,33.45
2023-03-24T14:49:29.030Z,36.44
2023-03-24T14:52:19.415Z,38.54
2023-03-24T14:55:07.604Z,38.23
2023-03-24T14:57:41.154Z,38.21
2023-03-24T15:00:21.536Z,40.21
2023-03-24T15:03:17.957Z,38.44
2023-03-24T15:05:46.076Z,42.07
2023-03-24T15:08:14.208Z,41.28
2023-03-24T15:10:53.667Z,45.15
2023-03-24T15:13:43.665Z,47.45
2023-03-24T15:16:11.464Z,51.19
2023-03-24T15:18:59.847Z,55.64
2023-03-24T15:21:39.832Z,58.83
2023-03-24T15:24:23.000Z,64.63
2023-03-24T15:26:54.233Z,65.61
2023-03-24T15:29:21.894Z,58.41
2023-03-24T15:31:50.630Z,51.44
2023-03-24T15:34:30.931Z,50.03
2023-03-24T15:37:04.138Z,48.84
2023-03-24T15:39:37.414Z,50.14
2023-03-24T15:42:07.857Z,54.92
2023-03-24T15:44:39.487Z,57.11
2023-03-24T15:47:32.264Z,58.16
2023-03-24T15:50:05.900Z,59.35
2023-03-24T15:52:39.116Z,64.09
2023-03-24T15:55:27.706Z,63.69
2023-03-24T15:58:01.839Z,60.87
2023-03-24T16:00:38.219Z,60.14
2023-03-24T16:03:06.968Z,58.51
2023-03-24T16:05:34.890Z,61.14
2023-03-24T16:08:05.794Z,63.13
2023-03-24T16:10:45.246Z,64.54
2023-03-24T16:13:21.284Z,63.71
2023-03-24T16:15:56.357Z,65.67
2023-03-24T16:18:32.071Z,65.31
2023-03-24T16:21:01.518Z,65.38
2023-03-24T16:23:32.793Z,68.00
2023-03-24T16:26:00.302Z,69.78
2023-03-24T16:28:28.253Z,74.51
2023-03-24T16:31:01.372Z,77.44
2023-03-24T16:33:30.385Z,78.87
2023-03-24T16:35:58.383Z,80.55
2023-03-24T16:38:26.832Z,84.75
2023-03-24T16:40:56.575Z,83.10
2023-03-24T16:43:24.054Z,85.54
2023-03-24T16:45:52.034Z,85.95
2023-03-24T16:48:19.444Z,86.53
2023-03-24T16:50:52.217Z,82.84
2023-03-24T16:53:19.961Z,80.44
2023-03-24T16:55:47.969Z,79.71
2023-03-24T16:58:16.788Z,79.03
2023-03-24T17:00:45.711Z,78.93
2023-03-24T17:03:13.898Z,80.10
2023-03-24T17:05:50.680Z,80.60
2023-03-24T17:08:19.494Z,82.11
2023-03-24T17:10:51.137Z,81.26
2023-03-24T17:13:24.828Z,82.05
2023-03-24T17:15:53.251Z,82.37
2023-03-24T17:18:21.028Z,83.15
2023-03-24T17:20:48.751Z,83.99
2023-03-24T17:23:18.599Z,84.65
2023-03-24T17:25:46.672Z,85.34
2023-03-24T17:28:15.646Z,85.33
2023-03-24T17:30:43.710Z,87.00
2023-03-24T17:33:13.868Z,87.92
2023-03-24T17:35:44.088Z,88.88
2023-03-24T17:38:14.563Z,89.28
2023-03-24T17:40:43.376Z,89.33
2023-03-24T17:43:11.260Z,89.16
2023-03-24T17:45:41.045Z,89.72
2023-03-24T17:48:08.634Z,89.26
2023-03-24T17:50:36.036Z,90.40
2023-03-24T17:53:03.950Z,91.34
2023-03-24T17:55:31.339Z,92.54
2023-03-24T17:57:58.818Z,91.23
2023-03-24T18:00:26.235Z,92.00
2023-03-24T18:02:53.791Z,94.24
2023-03-24T18:05:21.700Z,94.98
2023-03-24T18:07:49.592Z,94.54
2023-03-24T18:10:17.294Z,95.27
2023-03-24T18:12:45.326Z,94.87
2023-03-24T18:15:12.722Z,98.47
2023-03-24T18:17:40.407Z,98.72
2023-03-24T18:20:14.732Z,100.00
2023-03-24T18:22:43.275Z,100.00
2023-03-24T18:25:12.438Z,100.00
2023-03-24T18:27:41.491Z,100.00
2023-03-24T18:30:12.313Z,100.00
2023-03-24T18:32:40.544Z,100.00
2023-03-24T18:35:10.272Z,100.00
2023-03-24T18:37:37.804Z,100.00
2023-03-24T18:40:08.181Z,100.00
2023-03-24T18:42:36.867Z,100.00
2023-03-24T18:45:06.970Z,100.00
2023-03-24T18:47:35.177Z,100.00
2023-03-24T18:50:02.641Z,100.00
2023-03-24T18:52:30.724Z,100.00
2023-03-24T18:54:59.405Z,100.00
2023-03-24T18:57:26.788Z,100.00
2023-03-24T18:59:54.283Z,100.00
2023-03-24T19:02:21.785Z,100.00
2023-03-24T19:04:49.699Z,100.00
2023-03-24T19:07:24.337Z,100.00
2023-03-24T19:09:52.557Z,100.00
2023-03-24T19:12:20.035Z,100.00
2023-03-24T19:14:48.013Z,100.00
2023-03-24T19:17:15.384Z,100.00
2023-03-24T19:19:43.550Z,100.00
2023-03-24T19:22:11.465Z,100.00
2023-03-24T19:24:38.802Z,100.00
2023-03-24T19:27:08.305Z,100.00
2023-03-24T19:29:36.343Z,100.00
2023-03-24T19:32:04.134Z,100.00
2023-03-24T19:34:31.552Z,100.00
2023-03-24T19:36:59.294Z,100.00
2023-03-24T19:39:28.289Z,100.00
2023-03-24T19:41:56.284Z,100.00
2023-03-24T19:44:23.677Z,100.00
2023-03-24T19:46:51.154Z,100.00
2023-03-24T19:49:18.958Z,100.00
2023-03-24T19:51:47.305Z,100.00
2023-03-24T19:54:15.396Z,100.00
2023-03-24T19:56:43.920Z,100.00
2023-03-24T19:59:11.545Z,100.00
2023-03-24T20:01:39.367Z,100.00
2023-03-24T20:04:07.667Z,100.00
2023-03-24T20:06:35.757Z,100.00
2023-03-24T20:09:04.913Z,100.00
2023-03-24T20:11:33.225Z,100.00
2023-03-24T20:14:01.183Z,100.00
2023-03-24T20:16:29.127Z,100.00
2023-03-24T20:18:56.618Z,100.00
2023-03-24T20:21:24.525Z,100.00
2023-03-24T20:23:53.696Z,100.00
2023-03-24T20:26:22.204Z,100.00
2023-03-24T20:28:51.485Z,100.00
2023-03-24T20:31:19.703Z,100.00
2023-03-24T20:33:47.143Z,100.00
2023-03-24T20:36:14.514Z,100.00
2023-03-24T20:38:42.338Z,100.00
2023-03-24T20:41:10.233Z,100.00
2023-03-24T20:43:37.856Z,100.00
2023-03-24T20:46:08.277Z,100.00
2023-03-24T20:48:36.561Z,100.00
2023-03-24T20:51:04.306Z,100.00
2023-03-24T20:53:35.943Z,100.00
2023-03-24T20:56:07.153Z,100.00
2023-03-24T20:58:38.420Z,100.00
2023-03-24T21:01:09.887Z,100.00
2023-03-24T21:03:37.771Z,100.00
2023-03-24T21:06:06.000Z,100.00
2023-03-24T21:08:33.777Z,100.00
2023-03-24T21:11:01.669Z,100.00
2023-03-24T21:13:37.301Z,100.00
2023-03-24T21:16:08.728Z,100.00
2023-03-24T21:18:37.538Z,100.00
2023-03-24T21:21:06.161Z,100.00
2023-03-24T21:23:34.427Z,100.00
2023-03-24T21:26:02.449Z,100.00
2023-03-24T21:28:31.069Z,100.00
2023-03-24T21:31:04.945Z,100.00
2023-03-24T21:33:32.822Z,100.00
2023-03-24T21:36:00.419Z,100.00
2023-03-24T21:38:27.805Z,100.00
2023-03-24T21:40:59.046Z,100.00
2023-03-24T21:43:29.083Z,100.00
2023-03-24T21:45:57.654Z,100.00
2023-03-24T21:48:29.113Z,100.00
2023-03-24T21:50:57.435Z,100.00
2023-03-24T21:53:26.204Z,100.00
2023-03-24T21:55:56.429Z,100.00
2023-03-24T21:58:23.855Z,100.00
2023-03-24T22:00:52.046Z,100.00
2023-03-24T22:03:21.761Z,100.00
2023-03-24T22:05:49.886Z,100.00
2023-03-24T22:08:22.758Z,100.00
